Time;durP1;ratioP1;P1;durP2;ratioP2;P2;SDS_P1;SDS_P2;PMS_P1;PMS_P2;Temp;Humidity;BMP_temperature;BMP_pressure;BME280_temperature;BME280_humidity;BME280_pressure;Samples;Min_cycle;Max_cycle;Signal;HPM_P1;HPM_P2
2021/10/30 00:00:01;;;;;;;3.05;2.08;;;;;;;;;;5033964;28;20025;-43
2021/10/30 00:02:26;;;;;;;4.40;2.72;;;;;;;;;;5037218;28;20524;-44
2021/10/30 00:04:52;;;;;;;3.42;2.28;;;;;;;;;;5034958;28;20366;-40
2021/10/30 00:07:18;;;;;;;2.90;1.75;;;;;;;;;;5034372;28;20047;-42
2021/10/30 00:09:44;;;;;;;3.20;1.90;;;;;;;;;;5031548;28;20040;-40
2021/10/30 00:12:10;;;;;;;6.82;2.22;;;;;;;;;;5034628;28;20029;-40
2021/10/30 00:14:35;;;;;;;3.72;2.17;;;;;;;;;;5037572;28;20083;-41
2021/10/30 00:17:00;;;;;;;10.63;2.40;;;;;;;;;;5037515;28;20021;-39
2021/10/30 00:19:25;;;;;;;5.55;2.33;;;;;;;;;;5032011;28;20017;-41
2021/10/30 00:21:53;;;;;;;4.78;2.70;;;;;;;;;;5034043;28;20049;-44
2021/10/30 00:24:18;;;;;;;18.65;2.85;;;;;;;;;;5038700;28;20020;-42
2021/10/30 00:26:44;;;;;;;1.85;1.48;;;;;;;;;;5032315;28;20021;-42
2021/10/30 00:29:09;;;;;;;8.57;2.88;;;;;;;;;;5034423;28;20116;-44
2021/10/30 00:31:34;;;;;;;3.67;1.45;;;;;;;;;;5032524;28;20021;-41
2021/10/30 00:34:00;;;;;;;1.98;1.40;;;;;;;;;;5034766;28;20033;-42
2021/10/30 00:36:25;;;;;;;4.63;1.70;;;;;;;;;;5039228;28;20024;-41
2021/10/30 00:38:50;;;;;;;6.70;2.35;;;;;;;;;;5034530;28;20656;-44
2021/10/30 00:41:16;;;;;;;8.23;2.22;;;;;;;;;;5040063;28;20665;-40
2021/10/30 00:43:41;;;;;;;9.45;3.65;;;;;;;;;;5038578;28;20035;-44
2021/10/30 00:46:06;;;;;;;1.88;1.17;;;;;;;;;;5039154;28;20103;-44
2021/10/30 00:48:32;;;;;;;5.13;2.38;;;;;;;;;;5039689;28;20029;-44
2021/10/30 00:50:58;;;;;;;5.38;1.73;;;;;;;;;;5036219;28;20029;-46
2021/10/30 00:53:27;;;;;;;9.00;1.85;;;;;;;;;;5038245;28;20886;-42
2021/10/30 00:55:53;;;;;;;7.25;2.47;;;;;;;;;;5041057;28;20034;-42
2021/10/30 00:58:19;;;;;;;2.08;1.40;;;;;;;;;;5039036;28;20431;-41
2021/10/30 01:00:45;;;;;;;2.05;1.67;;;;;;;;;;5039365;28;20032;-40
2021/10/30 01:03:10;;;;;;;5.82;2.20;;;;;;;;;;5038562;28;20126;-43
2021/10/30 01:05:35;;;;;;;4.80;2.70;;;;;;;;;;5039666;28;20025;-43
2021/10/30 01:08:01;;;;;;;3.03;2.10;;;;;;;;;;5039746;28;20029;-42
2021/10/30 01:10:26;;;;;;;4.28;2.53;;;;;;;;;;5037624;28;20025;-43
2021/10/30 01:12:52;;;;;;;7.80;2.72;;;;;;;;;;5038492;28;20159;-43
2021/10/30 01:15:17;;;;;;;5.18;2.85;;;;;;;;;;5038026;28;20025;-41
2021/10/30 01:17:42;;;;;;;3.88;2.40;;;;;;;;;;5038967;28;20029;-43
2021/10/30 01:20:17;;;;;;;3.10;2.67;;;;;;;;;;5035851;28;20036;-46
2021/10/30 01:22:43;;;;;;;5.07;2.65;;;;;;;;;;5035333;28;20419;-44
2021/10/30 01:25:08;;;;;;;6.20;3.20;;;;;;;;;;5038123;28;20164;-43
2021/10/30 01:27:33;;;;;;;3.20;2.55;;;;;;;;;;5038760;28;20036;-48
2021/10/30 01:29:59;;;;;;;6.40;2.85;;;;;;;;;;5039230;28;20381;-44
2021/10/30 01:32:24;;;;;;;3.60;2.45;;;;;;;;;;5037021;28;20159;-41
2021/10/30 01:34:49;;;;;;;3.38;2.40;;;;;;;;;;5037309;28;20112;-43
2021/10/30 01:37:15;;;;;;;3.78;2.42;;;;;;;;;;5034568;28;20025;-42
2021/10/30 01:39:41;;;;;;;5.97;2.88;;;;;;;;;;5039716;28;20025;-42
2021/10/30 01:42:06;;;;;;;14.82;2.78;;;;;;;;;;5036104;28;20389;-41
2021/10/30 01:44:31;;;;;;;5.75;2.47;;;;;;;;;;5037898;28;20017;-41
2021/10/30 01:47:01;;;;;;;3.20;1.80;;;;;;;;;;5035333;28;20666;-41
2021/10/30 01:49:27;;;;;;;2.97;1.77;;;;;;;;;;5036181;28;20025;-39
2021/10/30 01:51:52;;;;;;;4.10;2.55;;;;;;;;;;5038082;28;20021;-41
2021/10/30 01:54:18;;;;;;;3.05;1.83;;;;;;;;;;5034122;28;20064;-39
2021/10/30 01:56:43;;;;;;;3.17;1.83;;;;;;;;;;5038369;28;20036;-42
2021/10/30 01:59:08;;;;;;;4.28;2.50;;;;;;;;;;5039051;28;20110;-39
2021/10/30 02:01:34;;;;;;;3.67;2.13;;;;;;;;;;5038548;28;20074;-44
2021/10/30 02:03:59;;;;;;;2.10;1.23;;;;;;;;;;5039689;28;20039;-44
2021/10/30 02:06:24;;;;;;;3.72;1.90;;;;;;;;;;5038905;28;20465;-48
2021/10/30 02:08:50;;;;;;;7.10;2.30;;;;;;;;;;5037816;28;20024;-41
2021/10/30 02:11:15;;;;;;;2.08;1.80;;;;;;;;;;5036339;28;20201;-42
2021/10/30 02:13:41;;;;;;;2.83;2.40;;;;;;;;;;5040883;28;20013;-41
2021/10/30 02:16:06;;;;;;;4.88;2.60;;;;;;;;;;5036545;28;20028;-41
2021/10/30 02:18:31;;;;;;;3.78;2.30;;;;;;;;;;5036738;28;20026;-40
2021/10/30 02:20:57;;;;;;;6.00;3.38;;;;;;;;;;5033498;28;20021;-43
2021/10/30 02:23:22;;;;;;;7.13;2.88;;;;;;;;;;5038932;28;20025;-43
2021/10/30 02:25:47;;;;;;;11.10;2.38;;;;;;;;;;5040865;28;20029;-43
2021/10/30 02:28:13;;;;;;;2.97;1.85;;;;;;;;;;5037339;28;20021;-46
2021/10/30 02:30:38;;;;;;;3.35;2.53;;;;;;;;;;5033466;28;20026;-42
2021/10/30 02:33:04;;;;;;;6.28;2.88;;;;;;;;;;5037095;28;20037;-41
2021/10/30 02:35:29;;;;;;;7.55;2.20;;;;;;;;;;5037137;28;20061;-44
2021/10/30 02:37:54;;;;;;;4.95;3.38;;;;;;;;;;5034737;28;20416;-46
2021/10/30 02:40:20;;;;;;;5.97;2.45;;;;;;;;;;5036215;28;20384;-40
2021/10/30 02:42:45;;;;;;;1.77;1.45;;;;;;;;;;5039888;28;20024;-46
2021/10/30 02:45:11;;;;;;;4.32;2.67;;;;;;;;;;5037008;28;20513;-45
2021/10/30 02:47:36;;;;;;;3.97;3.13;;;;;;;;;;5037466;28;20559;-42
2021/10/30 02:50:01;;;;;;;3.38;2.70;;;;;;;;;;5035386;28;20044;-41
2021/10/30 02:52:27;;;;;;;3.63;2.50;;;;;;;;;;5038059;28;20497;-41
2021/10/30 02:54:53;;;;;;;5.82;2.20;;;;;;;;;;5034272;28;20021;-41
2021/10/30 02:57:18;;;;;;;3.58;1.92;;;;;;;;;;5033109;28;20021;-44
2021/10/30 02:59:44;;;;;;;9.63;3.13;;;;;;;;;;5034971;28;20018;-41
2021/10/30 03:02:09;;;;;;;5.03;2.88;;;;;;;;;;5035861;28;20099;-48
2021/10/30 03:04:35;;;;;;;4.75;3.45;;;;;;;;;;5035154;28;20025;-43
2021/10/30 03:07:00;;;;;;;3.28;2.35;;;;;;;;;;5037638;28;20031;-42
2021/10/30 03:09:25;;;;;;;6.00;3.08;;;;;;;;;;5035690;28;20499;-43
2021/10/30 03:11:50;;;;;;;5.85;2.40;;;;;;;;;;5034356;28;20033;-47
2021/10/30 03:14:16;;;;;;;10.63;3.88;;;;;;;;;;5037779;28;20082;-42
2021/10/30 03:16:42;;;;;;;4.20;2.05;;;;;;;;;;5038454;28;20076;-44
2021/10/30 03:19:07;;;;;;;3.15;2.35;;;;;;;;;;5034333;28;20021;-48
2021/10/30 03:21:33;;;;;;;8.23;3.03;;;;;;;;;;5034080;28;20047;-44
2021/10/30 03:23:58;;;;;;;2.20;1.27;;;;;;;;;;5037521;28;20028;-45
2021/10/30 03:26:23;;;;;;;4.13;3.15;;;;;;;;;;5036489;28;20029;-48
2021/10/30 03:28:49;;;;;;;10.43;3.85;;;;;;;;;;5034933;28;20099;-42
2021/10/30 03:31:14;;;;;;;3.85;2.33;;;;;;;;;;5038933;28;20913;-43
2021/10/30 03:33:40;;;;;;;3.17;2.47;;;;;;;;;;5034154;28;20468;-45
2021/10/30 03:36:05;;;;;;;5.88;2.28;;;;;;;;;;5035846;28;20047;-44
2021/10/30 03:38:30;;;;;;;3.50;2.42;;;;;;;;;;5035403;28;20091;-40
2021/10/30 03:40:56;;;;;;;8.60;3.03;;;;;;;;;;5037641;28;20033;-42
2021/10/30 03:43:21;;;;;;;3.58;3.00;;;;;;;;;;5034921;28;20025;-44
2021/10/30 03:45:46;;;;;;;4.93;3.75;;;;;;;;;;5035567;28;20476;-42
2021/10/30 03:48:13;;;;;;;2.78;2.38;;;;;;;;;;5031756;28;20033;-43
2021/10/30 03:50:38;;;;;;;4.18;1.80;;;;;;;;;;5034696;28;20091;-44
2021/10/30 03:53:04;;;;;;;2.53;1.63;;;;;;;;;;5034745;28;20487;-41
2021/10/30 03:55:30;;;;;;;5.65;3.05;;;;;;;;;;5036928;28;20028;-44
2021/10/30 03:57:55;;;;;;;4.30;2.85;;;;;;;;;;5035757;28;20017;-41
2021/10/30 04:00:20;;;;;;;4.05;2.20;;;;;;;;;;5037818;28;20096;-42
2021/10/30 04:02:46;;;;;;;7.85;3.80;;;;;;;;;;5037653;28;20048;-43
2021/10/30 04:05:11;;;;;;;8.73;3.28;;;;;;;;;;5037782;28;20033;-42
2021/10/30 04:07:36;;;;;;;9.38;3.33;;;;;;;;;;5037590;28;20116;-45
2021/10/30 04:10:03;;;;;;;5.07;3.83;;;;;;;;;;5030771;28;20037;-41
2021/10/30 04:12:28;;;;;;;7.18;3.33;;;;;;;;;;5033249;28;20075;-43
2021/10/30 04:14:53;;;;;;;4.50;3.03;;;;;;;;;;5034599;28;20033;-42
2021/10/30 04:17:19;;;;;;;4.20;3.17;;;;;;;;;;5037093;28;20021;-42
2021/10/30 04:19:44;;;;;;;3.55;2.55;;;;;;;;;;5033728;28;20477;-43
2021/10/30 04:22:09;;;;;;;3.92;2.92;;;;;;;;;;5038573;28;20023;-43
2021/10/30 04:24:34;;;;;;;4.50;3.47;;;;;;;;;;5036811;28;20052;-41
2021/10/30 04:27:00;;;;;;;3.67;2.20;;;;;;;;;;5032686;28;20040;-42
2021/10/30 04:29:26;;;;;;;3.72;2.80;;;;;;;;;;5036551;28;20025;-46
2021/10/30 04:31:54;;;;;;;4.85;2.28;;;;;;;;;;5035382;28;20095;-42
2021/10/30 04:34:22;;;;;;;8.07;3.25;;;;;;;;;;5036933;28;20033;-44
2021/10/30 04:36:49;;;;;;;4.03;2.10;;;;;;;;;;5035993;28;20012;-45
2021/10/30 04:39:18;;;;;;;6.25;2.80;;;;;;;;;;5037393;28;20571;-43
2021/10/30 04:41:44;;;;;;;3.70;2.90;;;;;;;;;;5035844;28;20028;-41
2021/10/30 04:44:09;;;;;;;1.65;1.42;;;;;;;;;;5035869;28;20033;-42
2021/10/30 04:46:35;;;;;;;7.05;2.75;;;;;;;;;;5035952;28;20056;-46
2021/10/30 04:49:00;;;;;;;2.30;1.70;;;;;;;;;;5036050;28;20017;-44
2021/10/30 04:51:26;;;;;;;1.90;1.70;;;;;;;;;;5033437;28;20026;-44
2021/10/30 04:53:51;;;;;;;10.70;3.20;;;;;;;;;;5038079;28;20025;-47
2021/10/30 04:56:16;;;;;;;4.68;3.03;;;;;;;;;;5036374;28;20053;-44
2021/10/30 04:58:44;;;;;;;2.53;1.88;;;;;;;;;;5035945;28;20020;-42
2021/10/30 05:01:14;;;;;;;5.18;2.03;;;;;;;;;;5031779;28;20040;-46
2021/10/30 05:03:39;;;;;;;2.70;2.00;;;;;;;;;;5035394;28;20033;-45
2021/10/30 05:06:05;;;;;;;7.53;2.20;;;;;;;;;;5033860;28;20025;-48
2021/10/30 05:08:30;;;;;;;3.42;2.22;;;;;;;;;;5035639;28;20025;-46
2021/10/30 05:10:55;;;;;;;3.00;2.33;;;;;;;;;;5035487;28;20032;-50
2021/10/30 05:13:21;;;;;;;3.00;2.22;;;;;;;;;;5037416;28;20048;-48
2021/10/30 05:15:46;;;;;;;5.82;2.75;;;;;;;;;;5032846;28;20508;-42
2021/10/30 05:18:11;;;;;;;3.28;2.47;;;;;;;;;;5035518;28;20080;-44
2021/10/30 05:20:37;;;;;;;2.92;2.50;;;;;;;;;;5034429;28;20014;-43
2021/10/30 05:23:02;;;;;;;2.47;1.45;;;;;;;;;;5036771;28;20057;-43
2021/10/30 05:25:27;;;;;;;2.30;1.73;;;;;;;;;;5035094;28;20619;-42
2021/10/30 05:27:53;;;;;;;3.58;1.58;;;;;;;;;;5038390;28;20021;-41
2021/10/30 05:30:18;;;;;;;3.58;1.67;;;;;;;;;;5040081;28;20648;-42
2021/10/30 05:32:43;;;;;;;2.28;1.85;;;;;;;;;;5037404;28;20117;-47
2021/10/30 05:35:09;;;;;;;4.63;2.22;;;;;;;;;;5036939;28;20053;-45
2021/10/30 05:37:34;;;;;;;2.28;1.88;;;;;;;;;;5040225;28;20557;-42
2021/10/30 05:40:00;;;;;;;2.25;1.35;;;;;;;;;;5042905;28;20747;-44
2021/10/30 05:42:25;;;;;;;4.38;2.55;;;;;;;;;;5038291;28;20028;-42
2021/10/30 05:44:51;;;;;;;2.75;1.45;;;;;;;;;;5037875;28;20104;-45
2021/10/30 05:47:17;;;;;;;5.40;2.08;;;;;;;;;;5037712;28;20112;-41
2021/10/30 05:49:43;;;;;;;3.85;1.35;;;;;;;;;;5041702;28;20043;-44
2021/10/30 05:52:09;;;;;;;2.22;1.38;;;;;;;;;;5040285;28;20108;-41
2021/10/30 05:54:34;;;;;;;2.40;1.63;;;;;;;;;;5039190;28;20112;-48
2021/10/30 05:57:00;;;;;;;9.85;1.98;;;;;;;;;;5040100;28;20029;-42
2021/10/30 05:59:28;;;;;;;1.13;0.93;;;;;;;;;;5039034;28;20055;-43
2021/10/30 06:01:53;;;;;;;5.00;1.55;;;;;;;;;;5037750;28;20140;-45
2021/10/30 06:04:19;;;;;;;3.78;2.10;;;;;;;;;;5037708;28;20116;-43
2021/10/30 06:06:44;;;;;;;3.28;1.77;;;;;;;;;;5038512;28;20455;-41
2021/10/30 06:09:10;;;;;;;1.65;1.25;;;;;;;;;;5035166;28;20025;-46
2021/10/30 06:11:35;;;;;;;2.85;1.63;;;;;;;;;;5038475;28;20021;-46
2021/10/30 06:14:02;;;;;;;5.43;1.42;;;;;;;;;;5034109;28;20036;-44
2021/10/30 06:16:27;;;;;;;4.20;1.92;;;;;;;;;;5036604;28;20017;-44
2021/10/30 06:18:53;;;;;;;3.58;1.67;;;;;;;;;;5035061;28;20116;-46
2021/10/30 06:21:18;;;;;;;5.35;1.20;;;;;;;;;;5039581;28;20013;-44
2021/10/30 06:23:46;;;;;;;2.83;0.93;;;;;;;;;;5036930;28;20059;-46
2021/10/30 06:26:12;;;;;;;9.15;1.35;;;;;;;;;;5037735;28;20029;-44
2021/10/30 06:28:37;;;;;;;3.08;1.77;;;;;;;;;;5038524;28;20420;-45
2021/10/30 06:31:03;;;;;;;2.55;1.67;;;;;;;;;;5038087;28;20516;-47
2021/10/30 06:33:28;;;;;;;8.38;1.70;;;;;;;;;;5039268;28;20162;-45
2021/10/30 06:35:53;;;;;;;7.68;1.92;;;;;;;;;;5038328;28;20069;-48
2021/10/30 06:38:19;;;;;;;3.42;1.85;;;;;;;;;;5036691;28;20756;-49
2021/10/30 06:40:44;;;;;;;2.80;1.00;;;;;;;;;;5038701;28;20040;-44
2021/10/30 06:43:09;;;;;;;1.58;1.05;;;;;;;;;;5039054;28;20017;-45
2021/10/30 06:45:35;;;;;;;2.33;1.13;;;;;;;;;;5037941;28;20025;-45
2021/10/30 06:48:00;;;;;;;3.28;1.40;;;;;;;;;;5034429;28;20103;-45
2021/10/30 06:50:25;;;;;;;1.05;0.70;;;;;;;;;;5036654;28;20818;-42
2021/10/30 06:52:52;;;;;;;1.58;1.23;;;;;;;;;;5035763;28;20435;-49
2021/10/30 06:55:17;;;;;;;4.53;1.52;;;;;;;;;;5039639;28;20025;-45
2021/10/30 06:57:43;;;;;;;1.08;0.80;;;;;;;;;;5035913;28;20079;-45
2021/10/30 07:00:09;;;;;;;1.33;0.82;;;;;;;;;;5033835;28;20017;-42
2021/10/30 07:02:35;;;;;;;2.78;0.68;;;;;;;;;;5033210;28;20032;-42
2021/10/30 07:05:00;;;;;;;4.40;1.02;;;;;;;;;;5032881;28;20326;-43
2021/10/30 07:07:26;;;;;;;1.15;0.68;;;;;;;;;;5034954;28;20657;-41
2021/10/30 07:09:58;;;;;;;1.27;0.88;;;;;;;;;;5031507;28;20027;-45
2021/10/30 07:12:23;;;;;;;0.80;0.65;;;;;;;;;;5035028;28;20029;-43
2021/10/30 07:14:49;;;;;;;0.77;0.77;;;;;;;;;;5035360;28;20029;-43
2021/10/30 07:17:14;;;;;;;2.95;1.20;;;;;;;;;;5038523;28;20040;-41
2021/10/30 07:19:39;;;;;;;4.63;1.02;;;;;;;;;;5035339;28;20014;-45
2021/10/30 07:22:05;;;;;;;2.17;0.98;;;;;;;;;;5037238;28;20551;-45
2021/10/30 07:24:30;;;;;;;1.48;0.75;;;;;;;;;;5033686;28;20057;-45
2021/10/30 07:26:55;;;;;;;2.97;1.90;;;;;;;;;;5036525;28;20145;-47
2021/10/30 07:29:20;;;;;;;1.90;1.33;;;;;;;;;;5040015;28;20059;-43
2021/10/30 07:31:46;;;;;;;2.00;0.77;;;;;;;;;;5031272;28;20025;-47
2021/10/30 07:34:11;;;;;;;1.80;1.00;;;;;;;;;;5036688;28;20104;-46
2021/10/30 07:36:36;;;;;;;1.13;0.90;;;;;;;;;;5035797;28;20331;-42
2021/10/30 07:39:02;;;;;;;3.17;1.52;;;;;;;;;;5037830;28;20032;-45
2021/10/30 07:41:27;;;;;;;6.40;0.90;;;;;;;;;;5035665;28;20557;-47
2021/10/30 07:43:54;;;;;;;2.50;0.80;;;;;;;;;;5037276;28;20361;-43
2021/10/30 07:46:20;;;;;;;4.07;1.83;;;;;;;;;;5036184;28;20080;-44
2021/10/30 07:48:45;;;;;;;1.67;0.93;;;;;;;;;;5032484;28;20029;-42
2021/10/30 07:51:11;;;;;;;2.63;1.10;;;;;;;;;;5033235;28;20021;-45
2021/10/30 07:53:36;;;;;;;1.13;0.70;;;;;;;;;;5035333;28;20029;-45
2021/10/30 07:56:02;;;;;;;2.50;1.08;;;;;;;;;;5039668;28;20024;-45
2021/10/30 07:58:27;;;;;;;6.28;4.20;;;;;;;;;;5037801;28;20016;-46
2021/10/30 08:00:53;;;;;;;3.03;0.80;;;;;;;;;;5036008;28;20108;-43
2021/10/30 08:03:18;;;;;;;2.35;1.45;;;;;;;;;;5035867;28;20078;-41
2021/10/30 08:05:43;;;;;;;6.47;2.92;;;;;;;;;;5035984;28;20342;-44
2021/10/30 08:08:09;;;;;;;3.88;1.52;;;;;;;;;;5038882;28;20009;-44
2021/10/30 08:10:34;;;;;;;4.90;2.35;;;;;;;;;;5041122;28;20489;-43
2021/10/30 08:12:59;;;;;;;3.33;1.75;;;;;;;;;;5033874;28;20032;-43
2021/10/30 08:15:25;;;;;;;3.35;2.15;;;;;;;;;;5042444;28;20047;-43
2021/10/30 08:17:52;;;;;;;6.57;1.17;;;;;;;;;;5032841;28;20029;-46
2021/10/30 08:20:18;;;;;;;1.50;1.15;;;;;;;;;;5036977;28;20317;-44
2021/10/30 08:22:43;;;;;;;1.20;0.63;;;;;;;;;;5037705;28;20040;-44
2021/10/30 08:25:09;;;;;;;6.25;1.50;;;;;;;;;;5037726;28;20067;-43
2021/10/30 08:27:34;;;;;;;3.03;1.95;;;;;;;;;;5037385;28;20017;-46
2021/10/30 08:29:59;;;;;;;2.35;1.73;;;;;;;;;;5036052;28;20032;-45
2021/10/30 08:32:25;;;;;;;1.90;1.65;;;;;;;;;;5038341;28;20032;-43
2021/10/30 08:34:50;;;;;;;3.15;2.05;;;;;;;;;;5036719;28;20515;-45
2021/10/30 08:37:16;;;;;;;10.15;1.83;;;;;;;;;;5035650;28;20014;-42
2021/10/30 08:39:41;;;;;;;1.88;1.17;;;;;;;;;;5034405;28;20047;-44
2021/10/30 08:42:07;;;;;;;1.30;0.80;;;;;;;;;;5033184;28;20108;-56
2021/10/30 08:44:37;;;;;;;2.10;1.13;;;;;;;;;;5033940;28;20033;-57
2021/10/30 08:47:03;;;;;;;1.83;1.50;;;;;;;;;;5030110;28;20099;-58
2021/10/30 08:49:29;;;;;;;1.67;1.05;;;;;;;;;;5037098;28;20099;-56
2021/10/30 08:51:55;;;;;;;3.35;1.67;;;;;;;;;;5035768;28;20025;-54
2021/10/30 08:54:20;;;;;;;5.72;2.25;;;;;;;;;;5035228;28;20379;-56
2021/10/30 08:56:46;;;;;;;7.80;1.92;;;;;;;;;;5033694;28;20472;-57
2021/10/30 08:59:11;;;;;;;2.13;1.75;;;;;;;;;;5037503;28;20377;-53
2021/10/30 09:01:50;;;;;;;9.00;2.38;;;;;;;;;;5039020;28;20056;-57
2021/10/30 09:04:16;;;;;;;3.78;1.80;;;;;;;;;;5041936;28;20040;-56
2021/10/30 09:06:57;;;;;;;3.67;2.50;;;;;;;;;;5041256;28;20025;-53
2021/10/30 09:09:22;;;;;;;4.13;2.97;;;;;;;;;;5037539;28;20056;-56
2021/10/30 09:11:55;;;;;;;13.00;4.10;;;;;;;;;;5038641;28;20286;-55
2021/10/30 09:14:21;;;;;;;9.00;6.85;;;;;;;;;;5039856;28;20033;-54
2021/10/30 09:17:09;;;;;;;7.00;4.50;;;;;;;;;;5039168;28;20381;-51
2021/10/30 09:19:34;;;;;;;7.30;3.65;;;;;;;;;;5046333;28;20110;-54
2021/10/30 09:22:04;;;;;;;11.25;3.85;;;;;;;;;;5039794;28;20477;-58
2021/10/30 09:24:29;;;;;;;8.10;2.92;;;;;;;;;;5034881;28;20033;-57
2021/10/30 09:26:54;;;;;;;4.30;3.25;;;;;;;;;;5039369;28;20022;-56
2021/10/30 09:29:20;;;;;;;5.07;3.55;;;;;;;;;;5037480;28;20009;-58
2021/10/30 09:31:45;;;;;;;9.45;3.30;;;;;;;;;;5037860;28;20494;-53
2021/10/30 09:34:12;;;;;;;13.60;9.85;;;;;;;;;;5038453;28;20021;-53
2021/10/30 09:36:38;;;;;;;3.53;2.38;;;;;;;;;;5036824;28;20025;-55
2021/10/30 09:39:08;;;;;;;3.60;1.27;;;;;;;;;;5035463;28;20021;-51
2021/10/30 09:41:35;;;;;;;2.95;1.75;;;;;;;;;;5040147;28;20120;-56
2021/10/30 09:44:06;;;;;;;2.13;1.38;;;;;;;;;;5037538;28;20025;-53
2021/10/30 09:46:53;;;;;;;1.95;1.30;;;;;;;;;;5032068;28;20049;-56
2021/10/30 09:49:23;;;;;;;8.95;2.40;;;;;;;;;;5041926;28;20039;-53
2021/10/30 09:51:51;;;;;;;5.72;2.28;;;;;;;;;;5035253;28;20029;-53
2021/10/30 09:54:32;;;;;;;12.05;3.10;;;;;;;;;;5039848;28;20125;-55
2021/10/30 09:56:57;;;;;;;;;;;;;;;;;;5037911;28;20120;-55
2021/10/30 09:59:24;;;;;;;1.70;1.33;;;;;;;;;;5038667;28;19988;-56
2021/10/30 10:01:50;;;;;;;11.27;2.33;;;;;;;;;;5041140;28;20021;-54
2021/10/30 10:04:17;;;;;;;6.70;3.35;;;;;;;;;;5038641;28;20104;-56
2021/10/30 10:06:42;;;;;;;7.22;3.25;;;;;;;;;;5040084;28;20503;-55
2021/10/30 10:09:08;;;;;;;5.72;3.25;;;;;;;;;;5033833;28;20104;-54
2021/10/30 10:11:33;;;;;;;4.57;2.03;;;;;;;;;;5036510;28;20476;-54
2021/10/30 10:13:59;;;;;;;2.65;2.03;;;;;;;;;;5038457;28;20029;-56
2021/10/30 10:16:26;;;;;;;5.43;3.20;;;;;;;;;;5038152;28;20040;-54
2021/10/30 10:18:53;;;;;;;4.68;2.08;;;;;;;;;;5034185;28;20025;-55
2021/10/30 10:21:19;;;;;;;7.25;3.15;;;;;;;;;;5037307;28;20025;-54
2021/10/30 10:23:45;;;;;;;12.13;3.05;;;;;;;;;;5037118;28;20029;-51
2021/10/30 10:26:11;;;;;;;8.75;2.65;;;;;;;;;;5036527;28;20139;-57
2021/10/30 10:28:36;;;;;;;9.05;2.45;;;;;;;;;;5032013;28;20544;-53
2021/10/30 10:31:22;;;;;;;4.03;2.63;;;;;;;;;;5036740;28;20020;-54
2021/10/30 10:34:05;;;;;;;3.53;2.10;;;;;;;;;;5035192;28;20051;-53
2021/10/30 10:36:30;;;;;;;9.77;3.58;;;;;;;;;;5031784;28;20059;-51
2021/10/30 10:38:58;;;;;;;9.35;2.45;;;;;;;;;;5035982;28;20029;-54
2021/10/30 10:41:44;;;;;;;5.57;2.40;;;;;;;;;;5031601;28;20029;-49
2021/10/30 10:44:11;;;;;;;5.75;2.50;;;;;;;;;;5038060;28;20850;-50
2021/10/30 10:46:40;;;;;;;14.40;4.45;;;;;;;;;;5033323;28;20061;-53
2021/10/30 10:49:30;;;;;;;14.15;4.53;;;;;;;;;;5033848;28;20061;-53
2021/10/30 10:52:10;;;;;;;27.63;4.15;;;;;;;;;;5033706;28;20831;-51
2021/10/30 10:54:54;;;;;;;9.52;4.13;;;;;;;;;;5032937;28;20047;-56
2021/10/30 10:57:25;;;;;;;6.50;3.70;;;;;;;;;;5033816;28;20052;-53
2021/10/30 10:59:50;;;;;;;;;;;;;;;;;;5028276;28;20049;-52
2021/10/30 11:02:17;;;;;;;8.87;2.87;;;;;;;;;;5031663;28;20021;-53
2021/10/30 11:05:02;;;;;;;5.82;3.97;;;;;;;;;;5030821;28;20075;-56
2021/10/30 11:07:27;;;;;;;10.80;5.53;;;;;;;;;;5029353;28;20117;-55
2021/10/30 11:09:54;;;;;;;6.40;4.00;;;;;;;;;;5033919;28;20035;-55
2021/10/30 11:12:23;;;;;;;4.57;2.15;;;;;;;;;;5031325;28;20501;-53
2021/10/30 11:15:04;;;;;;;10.20;5.28;;;;;;;;;;5029475;28;20056;-53
2021/10/30 11:17:30;;;;;;;;;;;;;;;;;;5028941;28;20025;-55
2021/10/30 11:19:55;;;;;;;8.38;3.35;;;;;;;;;;5032630;28;19909;-55
2021/10/30 11:22:24;;;;;;;14.45;5.00;;;;;;;;;;5031576;28;20121;-53
2021/10/30 11:25:00;;;;;;;7.80;2.80;;;;;;;;;;5032963;28;20029;-56
2021/10/30 11:27:26;;;;;;;4.97;2.33;;;;;;;;;;5036558;28;20036;-51
2021/10/30 11:29:52;;;;;;;10.95;3.15;;;;;;;;;;5034754;28;20078;-53
2021/10/30 11:32:23;;;;;;;15.18;4.97;;;;;;;;;;5036331;28;20075;-54
2021/10/30 11:34:48;;;;;;;;;;;;;;;;;;5036175;28;20036;-55
2021/10/30 11:37:16;;;;;;;12.20;3.83;;;;;;;;;;5036786;28;20253;-54
2021/10/30 11:39:46;;;;;;;13.00;3.70;;;;;;;;;;5034834;28;20044;-52
2021/10/30 11:42:17;;;;;;;18.40;4.57;;;;;;;;;;5034796;28;20084;-51
2021/10/30 11:44:58;;;;;;;7.45;3.88;;;;;;;;;;5033544;28;20148;-54
2021/10/30 11:47:27;;;;;;;7.30;2.10;;;;;;;;;;5035671;28;20045;-53
2021/10/30 11:49:53;;;;;;;8.10;2.72;;;;;;;;;;5035756;28;20037;-55
2021/10/30 11:52:18;;;;;;;7.63;3.63;;;;;;;;;;5035552;28;20606;-53
2021/10/30 11:54:46;;;;;;;10.02;3.75;;;;;;;;;;5039136;28;20082;-55
2021/10/30 11:57:11;;;;;;;5.28;2.42;;;;;;;;;;5034244;28;20077;-52
2021/10/30 11:59:44;;;;;;;10.30;2.50;;;;;;;;;;5033358;28;20552;-53
2021/10/30 12:02:16;;;;;;;13.50;4.65;;;;;;;;;;5037402;28;20049;-55
2021/10/30 12:04:42;;;;;;;12.48;4.55;;;;;;;;;;5038394;28;20068;-53
2021/10/30 12:07:07;;;;;;;9.23;4.43;;;;;;;;;;5034697;28;20071;-53
2021/10/30 12:09:32;;;;;;;11.65;3.50;;;;;;;;;;5036873;28;20056;-54
2021/10/30 12:11:58;;;;;;;10.55;3.83;;;;;;;;;;5036786;28;20033;-51
2021/10/30 12:14:27;;;;;;;9.18;2.97;;;;;;;;;;5038713;28;20506;-53
2021/10/30 12:16:53;;;;;;;3.97;2.60;;;;;;;;;;5036025;28;20678;-55
2021/10/30 12:19:20;;;;;;;8.25;2.75;;;;;;;;;;5038399;28;20024;-55
2021/10/30 12:21:45;;;;;;;17.25;4.05;;;;;;;;;;5037968;28;20021;-52
2021/10/30 12:24:11;;;;;;;10.32;2.90;;;;;;;;;;5037699;28;20025;-57
2021/10/30 12:26:53;;;;;;;10.30;2.53;;;;;;;;;;5037499;28;20029;-54
2021/10/30 12:29:21;;;;;;;6.85;2.05;;;;;;;;;;5034617;28;20028;-53
2021/10/30 12:32:05;;;;;;;5.50;3.22;;;;;;;;;;5036687;28;20052;-54
2021/10/30 12:34:34;;;;;;;4.25;1.95;;;;;;;;;;5034126;28;20480;-55
2021/10/30 12:37:12;;;;;;;3.72;2.58;;;;;;;;;;5041452;28;20026;-55
2021/10/30 12:39:39;;;;;;;8.68;2.13;;;;;;;;;;5040003;28;20067;-56
2021/10/30 12:42:08;;;;;;;8.70;2.58;;;;;;;;;;5040117;28;20798;-55
2021/10/30 12:44:36;;;;;;;9.20;2.35;;;;;;;;;;5043094;28;20044;-56
2021/10/30 12:47:11;;;;;;;7.65;2.15;;;;;;;;;;5039944;28;20049;-55
2021/10/30 12:49:36;;;;;;;11.05;3.83;;;;;;;;;;5040499;28;20020;-57
2021/10/30 12:52:07;;;;;;;8.40;3.20;;;;;;;;;;5041732;28;20100;-57
2021/10/30 12:54:33;;;;;;;8.45;2.63;;;;;;;;;;5042604;28;20028;-58
2021/10/30 12:56:58;;;;;;;8.27;3.40;;;;;;;;;;5042420;28;20813;-57
2021/10/30 12:59:34;;;;;;;9.80;2.75;;;;;;;;;;5039280;28;20573;-58
2021/10/30 13:01:59;;;;;;;9.13;3.15;;;;;;;;;;5040028;28;20047;-57
2021/10/30 13:04:29;;;;;;;8.80;2.65;;;;;;;;;;5042408;28;20029;-56
2021/10/30 13:06:58;;;;;;;8.82;2.78;;;;;;;;;;5039693;28;20028;-58
2021/10/30 13:09:25;;;;;;;4.65;2.30;;;;;;;;;;5035848;28;20080;-56
2021/10/30 13:11:50;;;;;;;4.68;3.65;;;;;;;;;;5039026;28;20025;-58
2021/10/30 13:14:16;;;;;;;22.88;2.88;;;;;;;;;;5040919;28;20358;-57
2021/10/30 13:16:41;;;;;;;8.20;3.95;;;;;;;;;;5041923;28;20025;-58
2021/10/30 13:19:07;;;;;;;12.80;2.85;;;;;;;;;;5041737;28;20024;-57
2021/10/30 13:21:32;;;;;;;6.53;3.25;;;;;;;;;;5036050;28;20108;-58
2021/10/30 13:23:58;;;;;;;13.60;4.13;;;;;;;;;;5040997;28;20028;-57
2021/10/30 13:26:24;;;;;;;8.20;2.70;;;;;;;;;;5037322;28;20025;-58
2021/10/30 13:28:49;;;;;;;8.63;1.85;;;;;;;;;;5037182;28;20036;-58
2021/10/30 13:31:15;;;;;;;4.22;1.95;;;;;;;;;;5040616;28;20021;-57
2021/10/30 13:33:40;;;;;;;0.65;0.43;;;;;;;;;;5037748;28;20444;-58
2021/10/30 13:36:07;;;;;;;11.15;3.10;;;;;;;;;;5038528;28;20029;-58
2021/10/30 13:38:33;;;;;;;6.57;3.17;;;;;;;;;;5035892;28;20380;-58
2021/10/30 13:41:01;;;;;;;9.43;2.15;;;;;;;;;;5038429;28;20029;-58
2021/10/30 13:43:27;;;;;;;2.95;1.58;;;;;;;;;;5039995;28;20503;-58
2021/10/30 13:45:53;;;;;;;5.57;2.22;;;;;;;;;;5038237;28;20017;-58
2021/10/30 13:48:19;;;;;;;7.18;3.25;;;;;;;;;;5034479;28;20060;-56
2021/10/30 13:50:44;;;;;;;13.27;3.25;;;;;;;;;;5035249;28;20049;-58
2021/10/30 13:53:09;;;;;;;8.02;3.47;;;;;;;;;;5042429;28;20492;-58
2021/10/30 13:55:35;;;;;;;14.07;4.28;;;;;;;;;;5036663;28;20037;-57
2021/10/30 13:58:00;;;;;;;9.45;2.67;;;;;;;;;;5042867;28;20039;-57
2021/10/30 14:00:25;;;;;;;4.80;2.25;;;;;;;;;;5034210;28;20021;-57
2021/10/30 14:02:50;;;;;;;4.65;2.38;;;;;;;;;;5043537;28;20048;-54
2021/10/30 14:05:18;;;;;;;6.35;2.55;;;;;;;;;;5039145;28;20527;-58
2021/10/30 14:07:44;;;;;;;5.25;1.88;;;;;;;;;;5038889;28;20036;-57
2021/10/30 14:10:09;;;;;;;4.03;2.55;;;;;;;;;;5038742;28;20507;-57
2021/10/30 14:12:34;;;;;;;4.80;2.97;;;;;;;;;;5040501;28;20066;-57
2021/10/30 14:15:00;;;;;;;3.20;2.40;;;;;;;;;;5040600;28;20081;-58
2021/10/30 14:17:25;;;;;;;10.15;2.35;;;;;;;;;;5034268;28;20392;-57
2021/10/30 14:19:50;;;;;;;8.18;2.63;;;;;;;;;;5038074;28;20028;-57
2021/10/30 14:22:15;;;;;;;3.67;2.08;;;;;;;;;;5042614;28;20025;-57
2021/10/30 14:24:41;;;;;;;6.63;2.70;;;;;;;;;;5036080;28;20056;-57
2021/10/30 14:27:06;;;;;;;8.27;2.20;;;;;;;;;;5039522;28;20071;-57
2021/10/30 14:29:31;;;;;;;5.15;2.90;;;;;;;;;;5038784;28;20028;-57
2021/10/30 14:32:00;;;;;;;7.43;3.17;;;;;;;;;;5039581;28;20025;-57
2021/10/30 14:34:30;;;;;;;7.57;3.05;;;;;;;;;;5034849;28;20023;-58
2021/10/30 14:36:55;;;;;;;16.15;2.92;;;;;;;;;;5040494;28;20030;-56
2021/10/30 14:39:21;;;;;;;12.20;3.42;;;;;;;;;;5038822;28;20222;-58